Time;durP1;ratioP1;P1;durP2;ratioP2;P2;SDS_P1;SDS_P2;PMS_P1;PMS_P2;Temp;Humidity;BMP_temperature;BMP_pressure;BME280_temperature;BME280_humidity;BME280_pressure;Samples;Min_cycle;Max_cycle;Signal;HPM_P1;HPM_P2
2021/09/09 00:00:00;;;;;;;20.00;12.37;;;;;;;16.85;100.00;95708.94;1032418;28;20030;-73
2021/09/09 00:00:31;;;;;;;16.60;12.73;;;;;;;16.82;100.00;95709.56;1031804;28;20039;-73
2021/09/09 00:01:01;;;;;;;20.40;12.87;;;;;;;16.80;100.00;95706.41;1040079;28;20523;-73
2021/09/09 00:01:32;;;;;;;18.57;12.93;;;;;;;16.77;100.00;95707.00;1044128;28;20059;-73
2021/09/09 00:02:03;;;;;;;18.27;12.87;;;;;;;16.76;100.00;95706.22;1041791;28;20029;-73
2021/09/09 00:02:33;;;;;;;16.93;11.97;;;;;;;16.75;100.00;95703.84;1044235;28;20051;-73
2021/09/09 00:03:04;;;;;;;16.10;12.70;;;;;;;16.75;100.00;95706.53;1035924;28;20323;-73
2021/09/09 00:03:34;;;;;;;17.67;12.63;;;;;;;16.75;100.00;95710.03;1036223;28;20022;-73
2021/09/09 00:04:05;;;;;;;16.87;12.17;;;;;;;16.75;100.00;95709.25;1031774;28;20558;-73
2021/09/09 00:04:35;;;;;;;15.40;11.80;;;;;;;16.76;100.00;95708.91;1036211;28;20073;-74
2021/09/09 00:05:06;;;;;;;19.13;12.30;;;;;;;16.78;100.00;95708.59;1036224;28;20089;-73
2021/09/09 00:05:37;;;;;;;20.52;12.60;;;;;;;16.76;100.00;95708.13;1035990;28;20014;-73
2021/09/09 00:06:08;;;;;;;18.03;11.73;;;;;;;16.78;100.00;95705.91;1045232;28;20470;-73
2021/09/09 00:06:38;;;;;;;16.47;11.47;;;;;;;16.78;100.00;95705.91;1044273;28;20467;-73
2021/09/09 00:07:08;;;;;;;22.43;13.47;;;;;;;16.79;100.00;95710.22;1037182;28;20490;-73
2021/09/09 00:07:39;;;;;;;16.93;12.23;;;;;;;16.78;100.00;95708.59;1035774;28;20034;-73
2021/09/09 00:08:09;;;;;;;16.40;12.27;;;;;;;16.76;100.00;95702.72;1038840;28;20017;-73
2021/09/09 00:08:40;;;;;;;17.43;12.80;;;;;;;16.77;100.00;95707.81;1044069;28;20029;-73
2021/09/09 00:09:10;;;;;;;16.70;12.10;;;;;;;16.78;100.00;95709.38;1048431;28;20024;-75
2021/09/09 00:09:40;;;;;;;21.60;13.17;;;;;;;16.78;100.00;95705.91;1048507;28;20020;-74
2021/09/09 00:10:11;;;;;;;15.83;12.17;;;;;;;16.77;100.00;95709.72;1045416;28;20021;-75
2021/09/09 00:10:41;;;;;;;19.07;12.50;;;;;;;16.79;100.00;95708.31;1044701;28;20519;-74
2021/09/09 00:11:12;;;;;;;18.50;12.87;;;;;;;16.79;100.00;95705.59;1044483;28;20029;-73
2021/09/09 00:11:42;;;;;;;15.37;12.07;;;;;;;16.76;100.00;95708.91;1040103;28;20021;-73
2021/09/09 00:12:13;;;;;;;19.70;12.43;;;;;;;16.79;100.00;95704.81;1043206;28;20481;-74
2021/09/09 00:12:43;;;;;;;18.23;12.77;;;;;;;16.79;100.00;95707.50;1043953;28;20087;-73
2021/09/09 00:13:14;;;;;;;17.23;12.27;;;;;;;16.77;100.00;95710.50;1032302;28;20014;-74
2021/09/09 00:13:44;;;;;;;19.73;12.40;;;;;;;16.75;100.00;95709.25;1040311;28;20033;-74
2021/09/09 00:14:15;;;;;;;18.37;12.60;;;;;;;16.75;100.00;95707.34;1032591;28;20506;-75
2021/09/09 00:14:45;;;;;;;21.20;12.37;;;;;;;16.76;100.00;95708.91;1032473;28;20064;-74
2021/09/09 00:15:16;;;;;;;17.70;12.60;;;;;;;16.74;100.00;95708.47;1036155;28;20064;-74
2021/09/09 00:15:46;;;;;;;15.83;11.63;;;;;;;16.74;100.00;95710.38;1035328;28;20077;-74
2021/09/09 00:16:17;;;;;;;17.43;12.07;;;;;;;16.70;100.00;95707.47;1043578;28;20461;-74
2021/09/09 00:16:47;;;;;;;15.30;11.23;;;;;;;16.69;100.00;95705.09;1040220;28;20444;-74
2021/09/09 00:17:17;;;;;;;19.83;12.37;;;;;;;16.68;100.00;95703.47;1031751;28;20561;-74
2021/09/09 00:17:48;;;;;;;18.30;12.43;;;;;;;16.69;100.00;95705.09;1027713;28;20503;-74
2021/09/09 00:18:18;;;;;;;16.23;11.57;;;;;;;16.69;100.00;95699.69;1032039;28;20396;-74
2021/09/09 00:18:49;;;;;;;17.70;12.33;;;;;;;16.67;100.00;95702.69;1036405;28;20509;-73
2021/09/09 00:19:19;;;;;;;17.27;11.77;;;;;;;16.70;100.00;95703.97;1048589;28;20020;-73
2021/09/09 00:19:49;;;;;;;18.33;12.53;;;;;;;16.72;100.00;95704.47;1048629;28;20488;-73
2021/09/09 00:20:20;;;;;;;15.37;12.30;;;;;;;16.68;100.00;95706.97;1040497;28;20509;-73
2021/09/09 00:20:50;;;;;;;16.20;12.03;;;;;;;16.69;100.00;95703.19;1035752;28;20057;-73
2021/09/09 00:21:21;;;;;;;16.13;12.13;;;;;;;16.68;100.00;95701.56;1036143;28;20529;-73
2021/09/09 00:21:51;;;;;;;14.93;11.77;;;;;;;16.68;100.00;95714.28;1036900;28;20057;-74
2021/09/09 00:22:21;;;;;;;18.47;11.90;;;;;;;16.63;100.00;95699.84;1044390;28;20017;-73
2021/09/09 00:22:52;;;;;;;17.33;13.37;;;;;;;16.64;100.00;95703.34;1044394;28;20051;-73
2021/09/09 00:23:22;;;;;;;16.77;12.67;;;;;;;16.64;100.00;95704.13;1040214;28;20033;-73
2021/09/09 00:23:53;;;;;;;23.23;12.83;;;;;;;16.63;100.00;95699.03;1035578;28;20422;-73
2021/09/09 00:24:23;;;;;;;18.93;13.30;;;;;;;16.59;100.00;95709.66;1036207;28;20022;-73
2021/09/09 00:24:54;;;;;;;16.63;13.37;;;;;;;16.58;100.00;95705.38;1040222;28;20021;-74
2021/09/09 00:25:24;;;;;;;18.37;14.17;;;;;;;16.58;100.00;95710.78;1040324;28;20089;-73
2021/09/09 00:25:54;;;;;;;17.43;12.80;;;;;;;16.60;100.00;95713.16;1040842;28;20462;-74
2021/09/09 00:26:25;;;;;;;19.07;12.67;;;;;;;16.58;100.00;95710.78;1044338;28;20477;-73
2021/09/09 00:26:55;;;;;;;18.30;13.37;;;;;;;16.60;100.00;95708.56;1044303;28;20462;-73
2021/09/09 00:27:26;;;;;;;18.93;13.70;;;;;;;16.58;100.00;95700.00;1043694;28;20017;-73
2021/09/09 00:27:56;;;;;;;16.67;12.90;;;;;;;16.58;100.00;95704.56;1039624;28;20454;-74
2021/09/09 00:28:26;;;;;;;18.70;14.13;;;;;;;16.60;100.00;95705.84;1036003;28;20022;-73
2021/09/09 00:28:57;;;;;;;20.20;14.30;;;;;;;16.61;100.00;95709.34;1036001;28;20018;-73
2021/09/09 00:29:27;;;;;;;20.67;14.50;;;;;;;16.60;100.00;95710.47;1036177;28;20017;-73
2021/09/09 00:29:58;;;;;;;18.13;14.00;;;;;;;16.56;100.00;95702.19;1040286;28;20107;-73
2021/09/09 00:30:28;;;;;;;18.23;14.13;;;;;;;16.54;100.00;95704.41;1040253;28;20025;-73
2021/09/09 00:30:58;;;;;;;17.80;13.73;;;;;;;16.55;100.00;95705.22;1040038;28;20014;-73
2021/09/09 00:31:29;;;;;;;17.57;13.73;;;;;;;16.52;100.00;95698.53;1040293;28;20014;-73
2021/09/09 00:31:59;;;;;;;17.40;14.27;;;;;;;16.52;100.00;95706.63;1039946;28;20109;-73
2021/09/09 00:32:30;;;;;;;21.77;13.43;;;;;;;16.52;100.00;95712.00;1035698;28;20356;-73
2021/09/09 00:33:01;;;;;;;21.17;15.03;;;;;;;16.51;100.00;95699.66;1031642;28;20510;-73
2021/09/09 00:33:31;;;;;;;19.10;14.73;;;;;;;16.50;100.00;95703.47;1031647;28;20029;-73
2021/09/09 00:34:01;;;;;;;25.83;14.73;;;;;;;16.47;100.00;95703.28;1032074;28;20018;-73
2021/09/09 00:34:32;;;;;;;19.07;14.00;;;;;;;16.48;100.00;95705.69;1032114;28;20018;-73
2021/09/09 00:35:03;;;;;;;20.13;14.73;;;;;;;16.50;100.00;95705.38;1031550;28;20026;-73
2021/09/09 00:35:33;;;;;;;19.83;14.93;;;;;;;16.49;100.00;95704.56;1031996;28;20039;-73
2021/09/09 00:36:03;;;;;;;18.63;14.80;;;;;;;16.49;100.00;95709.97;1036264;28;20088;-73
2021/09/09 00:36:34;;;;;;;20.53;14.47;;;;;;;16.50;100.00;95702.66;1036297;28;20075;-73
2021/09/09 00:37:04;;;;;;;18.03;14.50;;;;;;;16.46;100.00;95709.78;1036933;28;20467;-73
2021/09/09 00:37:35;;;;;;;16.93;13.80;;;;;;;16.41;100.00;95705.34;1040268;28;20062;-73
2021/09/09 00:38:05;;;;;;;18.43;14.03;;;;;;;16.41;100.00;95705.34;1040402;28;20025;-73
2021/09/09 00:38:36;;;;;;;21.37;15.03;;;;;;;16.45;100.00;95705.50;1036268;28;20032;-73
2021/09/09 00:39:06;;;;;;;19.60;14.40;;;;;;;16.47;100.00;95704.06;1040159;28;20025;-73
2021/09/09 00:39:37;;;;;;;18.87;14.37;;;;;;;16.49;100.00;95707.28;1040223;28;20032;-73
2021/09/09 00:40:08;;;;;;;17.87;13.27;;;;;;;16.51;100.00;95706.94;1040387;28;20076;-73
2021/09/09 00:40:38;;;;;;;18.02;14.82;;;;;;;16.48;100.00;95710.25;1040132;28;20029;-73
2021/09/09 00:41:09;;;;;;;19.87;14.87;;;;;;;16.47;100.00;95704.06;1036206;28;20022;-73
2021/09/09 00:41:39;;;;;;;19.47;14.37;;;;;;;16.45;100.00;95708.22;1040248;28;20481;-73
2021/09/09 00:42:10;;;;;;;17.97;14.17;;;;;;;16.45;100.00;95706.31;1036089;28;20569;-73
2021/09/09 00:42:40;;;;;;;22.00;15.00;;;;;;;16.43;100.00;95708.53;1040345;28;20063;-73
2021/09/09 00:43:11;;;;;;;16.77;13.50;;;;;;;16.43;100.00;95708.53;1044318;28;20048;-73
2021/09/09 00:43:41;;;;;;;19.63;13.87;;;;;;;16.44;100.00;95706.63;1031952;28;20101;-74
2021/09/09 00:44:25;;;;;;;19.10;14.10;;;;;;;16.40;100.00;95708.34;1032047;28;20559;-73
2021/09/09 00:44:55;;;;;;;18.73;13.68;;;;;;;16.40;100.00;95708.34;1033829;28;20093;-73
2021/09/09 00:45:25;;;;;;;20.07;14.53;;;;;;;16.38;100.00;95706.78;1037384;28;20122;-73
2021/09/09 00:45:56;;;;;;;20.60;14.10;;;;;;;16.39;100.00;95712.94;1036052;28;20048;-73
2021/09/09 00:46:26;;;;;;;20.57;14.47;;;;;;;16.37;100.00;95705.16;1036134;28;20026;-73
2021/09/09 00:47:07;;;;;;;20.13;15.83;;;;;;;16.36;100.00;95703.56;1031812;28;20022;-74
2021/09/09 00:47:37;;;;;;;23.48;15.27;;;;;;;16.34;100.00;95705.81;1030296;28;20026;-73
2021/09/09 00:48:07;;;;;;;20.07;14.00;;;;;;;16.38;100.00;95705.97;1036968;28;20113;-73
2021/09/09 00:48:38;;;;;;;22.00;14.53;;;;;;;16.41;100.00;95704.53;1039856;28;20030;-73
2021/09/09 00:49:08;;;;;;;18.73;14.47;;;;;;;16.39;100.00;95707.56;1040252;28;20029;-73
2021/09/09 00:49:41;;;;;;;18.90;14.27;;;;;;;16.40;100.00;95708.34;1039954;28;20033;-73
2021/09/09 00:50:11;;;;;;;19.02;13.95;;;;;;;16.38;100.00;95705.97;1035224;28;20022;-74
2021/09/09 00:50:42;;;;;;;18.33;13.90;;;;;;;16.38;100.00;95695.97;1028125;28;20054;-73
2021/09/09 00:51:12;;;;;;;21.80;14.27;;;;;;;16.38;100.00;95706.78;1032083;28;20022;-73
2021/09/09 00:51:43;;;;;;;19.63;14.10;;;;;;;16.36;100.00;95702.78;1032076;28;20030;-74
2021/09/09 00:52:13;;;;;;;20.10;14.20;;;;;;;16.37;100.00;95712.44;1035920;28;20021;-73
2021/09/09 00:52:45;;;;;;;17.80;13.83;;;;;;;16.35;100.00;95703.91;1040169;28;20028;-73
2021/09/09 00:53:16;;;;;;;21.85;14.48;;;;;;;16.38;100.00;95712.16;1036094;28;20264;-73
2021/09/09 00:53:47;;;;;;;19.47;14.63;;;;;;;16.32;100.00;95707.22;1032243;28;20388;-73
2021/09/09 00:54:17;;;;;;;21.97;15.00;;;;;;;16.30;100.00;95704.03;1028033;28;20055;-73
2021/09/09 00:54:47;;;;;;;18.53;14.27;;;;;;;16.29;100.00;95699.75;1027951;28;20015;-73
2021/09/09 00:55:18;;;;;;;21.27;14.57;;;;;;;16.30;100.00;95706.75;1028026;28;20026;-73
2021/09/09 00:55:48;;;;;;;18.87;14.33;;;;;;;16.30;100.00;95704.03;1024112;28;20051;-73
2021/09/09 00:56:19;;;;;;;18.97;14.00;;;;;;;16.30;100.00;95706.75;1032061;28;20018;-73
2021/09/09 00:56:50;;;;;;;20.77;14.23;;;;;;;16.30;100.00;95704.03;1032022;28;20026;-73
2021/09/09 00:57:20;;;;;;;19.37;13.90;;;;;;;16.29;100.00;95702.47;1030180;28;20026;-73
2021/09/09 00:57:51;;;;;;;17.90;14.23;;;;;;;16.30;100.00;95707.53;1031913;28;20492;-74
2021/09/09 00:58:21;;;;;;;19.10;13.90;;;;;;;16.30;100.00;95704.03;1032236;28;20038;-73
2021/09/09 00:58:52;;;;;;;17.20;14.03;;;;;;;16.30;100.00;95702.13;1032034;28;20614;-73
2021/09/09 00:59:22;;;;;;;18.80;14.33;;;;;;;16.30;100.00;95701.34;1032056;28;20026;-73
2021/09/09 00:59:53;;;;;;;17.03;13.40;;;;;;;16.26;100.00;95698.47;1040085;28;20033;-73
2021/09/09 01:00:23;;;;;;;20.50;13.97;;;;;;;16.25;100.00;95702.28;1032163;28;20023;-73
2021/09/09 01:00:53;;;;;;;22.53;14.87;;;;;;;16.28;100.00;95700.88;1031955;28;20034;-73
2021/09/09 01:01:24;;;;;;;21.03;15.20;;;;;;;16.29;100.00;95697.84;1028062;28;20396;-73
2021/09/09 01:01:55;;;;;;;21.87;14.77;;;;;;;16.30;100.00;95701.34;1024031;28;20481;-73
2021/09/09 01:02:25;;;;;;;22.10;15.87;;;;;;;16.29;100.00;95697.84;1032076;28;20026;-73
2021/09/09 01:02:55;;;;;;;20.10;15.63;;;;;;;16.23;100.00;95701.81;1036097;28;20566;-73
2021/09/09 01:03:26;;;;;;;20.53;15.47;;;;;;;16.24;100.00;95697.22;1036120;28;20029;-73
2021/09/09 01:03:56;;;;;;;20.57;15.53;;;;;;;16.24;100.00;95699.91;1036109;28;20033;-73
2021/09/09 01:04:27;;;;;;;21.97;15.73;;;;;;;16.23;100.00;95701.00;1036019;28;20018;-73
2021/09/09 01:04:57;;;;;;;20.43;15.10;;;;;;;16.19;100.00;95703.53;1032046;28;20022;-73
2021/09/09 01:05:27;;;;;;;20.20;15.97;;;;;;;16.20;100.00;95699.72;1036044;28;20517;-73
2021/09/09 01:05:58;;;;;;;22.50;16.10;;;;;;;16.21;100.00;95700.50;1036033;28;20471;-73
2021/09/09 01:06:28;;;;;;;20.50;16.50;;;;;;;16.18;100.00;95699.25;1032041;28;20448;-73
2021/09/09 01:06:59;;;;;;;20.73;15.50;;;;;;;16.17;100.00;95700.34;1036025;28;20038;-73
2021/09/09 01:07:29;;;;;;;26.67;17.00;;;;;;;16.11;100.00;95699.69;1035802;28;20026;-73
2021/09/09 01:08:00;;;;;;;29.07;16.70;;;;;;;16.11;100.00;95698.91;1027994;28;20423;-73
2021/09/09 01:08:31;;;;;;;26.00;15.80;;;;;;;16.10;100.00;95695.41;1027900;28;20027;-73
2021/09/09 01:09:01;;;;;;;23.50;17.60;;;;;;;16.11;100.00;95704.28;1024031;28;20031;-73
2021/09/09 01:09:31;;;;;;;24.63;16.73;;;;;;;16.07;100.00;95701.44;1026763;28;20753;-73
2021/09/09 01:10:02;;;;;;;22.87;16.83;;;;;;;16.07;100.00;95704.13;1028130;28;20038;-73
2021/09/09 01:10:35;;;;;;;26.40;16.50;;;;;;;16.07;100.00;95698.75;1028060;28;20026;-73
2021/09/09 01:11:06;;;;;;;22.35;16.55;;;;;;;16.04;100.00;95698.56;1028296;28;20029;-73
2021/09/09 01:11:36;;;;;;;21.03;16.10;;;;;;;16.00;100.00;95697.59;1023930;29;20385;-73
2021/09/09 01:12:07;;;;;;;22.10;16.07;;;;;;;16.01;100.00;95699.97;1024413;28;20046;-73
2021/09/09 01:12:37;;;;;;;21.43;15.90;;;;;;;16.01;100.00;95705.34;1028007;28;20384;-73
2021/09/09 01:13:10;;;;;;;19.07;15.57;;;;;;;15.99;100.00;95701.41;1024111;28;20020;-73
2021/09/09 01:13:50;;;;;;;20.95;16.30;;;;;;;15.97;100.00;95701.72;1031993;28;20010;-73
2021/09/09 01:14:20;;;;;;;21.00;16.05;;;;;;;15.99;100.00;95702.19;1033511;28;20033;-72
2021/09/09 01:14:51;;;;;;;19.97;16.13;;;;;;;15.99;100.00;95704.88;1033554;28;20029;-72
2021/09/09 01:15:21;;;;;;;25.87;17.03;;;;;;;15.99;100.00;95704.88;1037314;28;20021;-73
2021/09/09 01:15:52;;;;;;;21.67;16.70;;;;;;;15.93;100.00;95708.03;1040072;28;20489;-73
2021/09/09 01:16:22;;;;;;;21.30;15.67;;;;;;;15.92;100.00;95709.94;1039977;28;20054;-73
2021/09/09 01:16:53;;;;;;;20.70;16.43;;;;;;;15.89;100.00;95707.06;1035974;28;20055;-72
2021/09/09 01:17:23;;;;;;;26.33;17.23;;;;;;;15.83;100.00;95709.09;1036199;28;20029;-73
2021/09/09 01:17:53;;;;;;;21.33;16.93;;;;;;;15.79;100.00;95706.22;1031907;28;20022;-72
2021/09/09 01:18:24;;;;;;;21.90;16.27;;;;;;;15.83;100.00;95706.41;1032080;28;20026;-72
2021/09/09 01:18:54;;;;;;;24.50;16.80;;;;;;;15.79;100.00;95702.72;1039937;28;20017;-72
2021/09/09 01:19:25;;;;;;;22.90;18.17;;;;;;;15.81;100.00;95708.59;1040097;28;20021;-73
2021/09/09 01:19:55;;;;;;;22.73;17.07;;;;;;;15.78;100.00;95709.22;1039903;28;20025;-74
2021/09/09 01:20:25;;;;;;;24.70;16.83;;;;;;;15.81;100.00;95713.97;1040168;28;20091;-73
2021/09/09 01:20:56;;;;;;;26.27;17.27;;;;;;;15.83;100.00;95709.09;1040055;28;20033;-74
2021/09/09 01:21:26;;;;;;;22.73;17.40;;;;;;;15.82;100.00;95712.91;1040064;28;20034;-73
2021/09/09 01:21:57;;;;;;;24.30;18.17;;;;;;;15.81;100.00;95708.59;1040333;28;20026;-73
2021/09/09 01:22:27;;;;;;;24.97;17.20;;;;;;;15.78;100.00;95703.84;1040336;28;20029;-73
2021/09/09 01:23:00;;;;;;;20.47;17.20;;;;;;;15.78;100.00;95709.22;1040103;28;20026;-73
2021/09/09 01:23:30;;;;;;;19.95;17.00;;;;;;;15.73;100.00;95706.66;1036063;28;20200;-73
2021/09/09 01:24:01;;;;;;;27.57;18.17;;;;;;;15.67;100.00;95706.00;1035926;28;20549;-73
2021/09/09 01:24:31;;;;;;;26.47;17.53;;;;;;;15.71;100.00;95706.16;1035976;28;20025;-74
2021/09/09 01:25:02;;;;;;;20.97;17.07;;;;;;;15.72;100.00;95715.88;1036375;28;20017;-73
2021/09/09 01:25:32;;;;;;;23.97;17.70;;;;;;;15.71;100.00;95709.66;1040086;28;20088;-74
2021/09/09 01:26:03;;;;;;;23.77;18.03;;;;;;;15.70;100.00;95709.97;1036000;28;20033;-73
2021/09/09 01:26:51;;;;;;;26.33;18.50;;;;;;;15.65;100.00;95710.09;1032231;28;20041;-73
2021/09/09 01:27:21;;;;;;;24.92;18.75;;;;;;;15.64;100.00;95709.31;1033117;28;20023;-73
2021/09/09 01:27:52;;;;;;;24.60;18.13;;;;;;;15.65;100.00;95707.41;1034395;28;20023;-73
2021/09/09 01:28:22;;;;;;;22.50;17.80;;;;;;;15.65;100.00;95710.09;1034330;28;20014;-74
2021/09/09 01:28:56;;;;;;;24.33;19.00;;;;;;;15.66;100.00;95717.91;1033088;28;20014;-74
2021/09/09 01:29:29;;;;;;;23.05;18.38;;;;;;;15.63;100.00;95715.81;1032468;28;20606;-73
2021/09/09 01:29:59;;;;;;;24.15;18.50;;;;;;;15.62;100.00;95713.41;1032721;28;20011;-74
2021/09/09 01:30:30;;;;;;;24.73;18.90;;;;;;;15.62;100.00;95710.69;1036737;28;20022;-73
2021/09/09 01:31:00;;;;;;;23.53;18.57;;;;;;;15.62;100.00;95713.41;1040003;28;20096;-73
2021/09/09 01:31:30;;;;;;;25.33;19.07;;;;;;;15.59;100.00;95712.91;1036233;28;20037;-74
2021/09/09 01:32:01;;;;;;;27.40;18.63;;;;;;;15.59;100.00;95709.41;1031882;28;20019;-73
2021/09/09 01:32:32;;;;;;;22.80;18.07;;;;;;;15.56;100.00;95713.53;1031855;28;20030;-74
2021/09/09 01:33:02;;;;;;;25.87;18.23;;;;;;;15.55;100.00;95711.91;1032056;28;20018;-74
2021/09/09 01:33:33;;;;;;;26.33;19.87;;;;;;;15.54;100.00;95712.22;1036275;28;20064;-73
2021/09/09 01:34:03;;;;;;;25.63;19.07;;;;;;;15.54;100.00;95710.31;1044560;28;20267;-74
2021/09/09 01:34:33;;;;;;;28.93;19.73;;;;;;;15.52;100.00;95712.53;1044496;28;20032;-74
2021/09/09 01:35:04;;;;;;;28.53;19.90;;;;;;;15.46;100.00;95716.47;1044211;28;20377;-74
2021/09/09 01:35:35;;;;;;;25.70;19.67;;;;;;;15.44;100.00;95715.97;1039959;28;20013;-74
2021/09/09 01:36:05;;;;;;;26.50;20.53;;;;;;;15.43;100.00;95714.38;1040086;28;20028;-73
2021/09/09 01:36:36;;;;;;;25.17;18.93;;;;;;;15.45;100.00;95706.78;1040072;28;20033;-73
2021/09/09 01:37:06;;;;;;;26.07;18.93;;;;;;;15.48;100.00;95706.19;1040067;28;20037;-74
2021/09/09 01:37:37;;;;;;;23.70;19.77;;;;;;;15.47;100.00;95707.28;1040812;28;20037;-74
2021/09/09 01:38:21;;;;;;;26.87;20.33;;;;;;;15.43;100.00;95705.50;1035893;28;20105;-74
2021/09/09 01:38:51;;;;;;;23.58;19.50;;;;;;;15.47;100.00;95703.81;1031886;28;20022;-74
2021/09/09 01:39:22;;;;;;;27.90;18.97;;;;;;;15.48;100.00;95698.09;1031858;28;20052;-74
2021/09/09 01:39:55;;;;;;;23.57;18.27;;;;;;;15.46;100.00;95703.00;1031609;28;20121;-73
2021/09/09 01:40:27;;;;;;;30.10;20.38;;;;;;;15.48;100.00;95703.47;1036469;28;20093;-74
2021/09/09 01:40:58;;;;;;;26.88;20.35;;;;;;;15.51;100.00;95708.28;1035959;28;20044;-74
2021/09/09 01:41:28;;;;;;;25.90;19.57;;;;;;;15.52;100.00;95704.47;1036441;28;20017;-74
2021/09/09 01:41:59;;;;;;;25.83;20.40;;;;;;;15.50;100.00;95717.44;1040074;28;20024;-74
2021/09/09 01:42:29;;;;;;;25.87;20.57;;;;;;;15.54;100.00;95704.16;1036217;28;20062;-74
2021/09/09 01:42:59;;;;;;;28.30;21.60;;;;;;;15.50;100.00;95709.34;1040083;28;20040;-74
2021/09/09 01:43:30;;;;;;;26.57;20.33;;;;;;;15.52;100.00;95711.75;1035808;28;20067;-74
2021/09/09 01:44:01;;;;;;;26.40;20.77;;;;;;;15.52;100.00;95720.63;1035631;28;20021;-74
2021/09/09 01:44:31;;;;;;;30.57;22.43;;;;;;;15.54;100.00;95707.63;1039902;28;20020;-73
2021/09/09 01:45:02;;;;;;;29.93;21.90;;;;;;;15.53;100.00;95714.13;1036021;28;20017;-74
2021/09/09 01:45:32;;;;;;;35.03;22.90;;;;;;;15.51;100.00;95705.56;1039971;28;20021;-74
2021/09/09 01:46:02;;;;;;;31.33;21.97;;;;;;;15.52;100.00;95712.53;1040067;28;20013;-74
2021/09/09 01:46:33;;;;;;;24.70;21.00;;;;;;;15.51;100.00;95715.56;1039992;28;20018;-74
2021/09/09 01:47:03;;;;;;;28.40;21.17;;;;;;;15.51;100.00;95707.47;1040105;28;20451;-75
2021/09/09 01:47:34;;;;;;;34.03;23.50;;;;;;;15.48;100.00;95708.09;1042056;28;20022;-74
2021/09/09 01:48:04;;;;;;;30.67;23.90;;;;;;;15.49;100.00;95710.44;1044023;28;20486;-74
2021/09/09 01:48:35;;;;;;;32.20;23.50;;;;;;;15.50;100.00;95708.56;1044089;28;20016;-73
2021/09/09 01:49:05;;;;;;;28.73;23.00;;;;;;;15.50;100.00;95709.34;1040014;28;20013;-74
2021/09/09 01:49:36;;;;;;;28.70;21.90;;;;;;;15.49;100.00;95713.16;1035909;28;20096;-73
2021/09/09 01:50:07;;;;;;;28.95;21.45;;;;;;;15.53;100.00;95708.75;1039967;28;20020;-73
2021/09/09 01:50:37;;;;;;;28.23;21.57;;;;;;;15.54;100.00;95715.72;1035863;28;20109;-74
2021/09/09 01:51:08;;;;;;;28.07;22.60;;;;;;;15.50;100.00;95714.72;1028325;28;20381;-74
2021/09/09 01:51:38;;;;;;;30.83;21.57;;;;;;;15.49;100.00;95712.34;1027752;28;20023;-73
2021/09/09 01:52:09;;;;;;;28.40;23.17;;;;;;;15.51;100.00;95705.56;1023834;28;20020;-74
2021/09/09 01:52:39;;;;;;;32.53;23.87;;;;;;;15.48;100.00;95710.78;1027915;28;20023;-73
2021/09/09 01:53:10;;;;;;;32.27;23.87;;;;;;;15.48;100.00;95711.56;1036005;28;20030;-74
2021/09/09 01:53:40;;;;;;;28.33;23.57;;;;;;;15.50;100.00;95709.34;1039859;28;20010;-73
2021/09/09 01:54:10;;;;;;;30.43;23.00;;;;;;;15.52;100.00;95720.63;1035807;28;20048;-73
2021/09/09 01:54:41;;;;;;;30.30;22.53;;;;;;;15.48;100.00;95716.94;1027841;28;20065;-73
2021/09/09 01:55:11;;;;;;;31.93;22.67;;;;;;;15.48;100.00;95706.19;1039936;28;20026;-73
2021/09/09 01:55:42;;;;;;;31.07;24.60;;;;;;;15.51;100.00;95715.56;1039978;28;20010;-73
2021/09/09 01:56:12;;;;;;;28.67;23.07;;;;;;;15.51;100.00;95718.25;1035905;28;20021;-73
2021/09/09 01:56:43;;;;;;;34.63;23.73;;;;;;;15.49;100.00;95712.34;1035862;28;20037;-73
2021/09/09 01:57:13;;;;;;;30.40;22.50;;;;;;;15.48;100.00;95714.25;1039899;28;20022;-74
2021/09/09 01:57:43;;;;;;;29.97;22.37;;;;;;;15.50;100.00;95717.44;1038706;28;20030;-73
2021/09/09 01:58:14;;;;;;;30.43;23.60;;;;;;;15.48;100.00;95713.47;1043958;28;20040;-73
2021/09/09 01:58:44;;;;;;;33.83;23.77;;;;;;;15.46;100.00;95715.69;1040348;28;20029;-74
2021/09/09 01:59:15;;;;;;;33.93;23.23;;;;;;;15.48;100.00;95716.16;1045381;28;20457;-73
2021/09/09 01:59:45;;;;;;;29.80;23.20;;;;;;;15.47;100.00;95709.19;1048569;28;20528;-73
2021/09/09 02:00:15;;;;;;;31.13;23.83;;;;;;;15.49;100.00;95707.75;1048214;28;20477;-73
2021/09/09 02:00:46;;;;;;;31.60;23.87;;;;;;;15.49;100.00;95709.66;1048276;28;20107;-74
2021/09/09 02:01:17;;;;;;;34.77;23.57;;;;;;;15.48;100.00;95716.16;1044131;28;20033;-73
2021/09/09 02:01:47;;;;;;;30.00;23.40;;;;;;;15.50;100.00;95711.25;1044252;28;20053;-73
2021/09/09 02:02:18;;;;;;;31.03;23.60;;;;;;;15.52;100.00;95719.84;1044062;28;20035;-74
2021/09/09 02:02:48;;;;;;;32.10;23.23;;;;;;;15.48;100.00;95716.94;1044270;28;20079;-73
2021/09/09 02:03:19;;;;;;;32.73;23.63;;;;;;;15.50;100.00;95705.88;1048240;28;20450;-73
2021/09/09 02:03:49;;;;;;;27.17;22.10;;;;;;;15.48;100.00;95711.56;1043955;28;20025;-73
2021/09/09 02:04:19;;;;;;;27.97;22.67;;;;;;;15.48;100.00;95708.88;1043964;28;20029;-74
2021/09/09 02:04:50;;;;;;;31.30;23.40;;;;;;;15.48;100.00;95702.69;1039977;28;20029;-73
2021/09/09 02:05:20;;;;;;;28.63;23.17;;;;;;;15.48;100.00;95710.78;1044143;28;20025;-74
2021/09/09 02:05:51;;;;;;;31.37;22.10;;;;;;;15.46;100.00;95710.28;1044134;28;20017;-73
2021/09/09 02:06:21;;;;;;;28.33;21.73;;;;;;;15.48;100.00;95706.19;1039971;28;20025;-73
2021/09/09 02:06:52;;;;;;;26.30;21.77;;;;;;;15.45;100.00;95709.47;1039997;28;20022;-73
2021/09/09 02:07:22;;;;;;;31.57;23.07;;;;;;;15.44;100.00;95705.19;1034934;28;20018;-73
2021/09/09 02:07:53;;;;;;;33.53;23.60;;;;;;;15.44;100.00;95699.81;1031984;28;20030;-74
2021/09/09 02:08:23;;;;;;;30.70;21.80;;;;;;;15.46;100.00;95704.91;1031840;28;20022;-73
2021/09/09 02:08:54;;;;;;;34.37;22.70;;;;;;;15.48;100.00;95700.78;1031897;28;20026;-74
2021/09/09 02:09:24;;;;;;;29.33;22.77;;;;;;;15.42;100.00;95707.41;1035882;28;20022;-74
2021/09/09 02:09:55;;;;;;;32.87;22.37;;;;;;;15.40;100.00;95704.22;1031894;28;20022;-75
2021/09/09 02:10:25;;;;;;;31.70;23.07;;;;;;;15.42;100.00;95707.41;1027839;28;20018;-74
2021/09/09 02:10:55;;;;;;;30.63;22.60;;;;;;;15.40;100.00;95706.13;1027831;28;20051;-73
2021/09/09 02:11:26;;;;;;;29.97;22.20;;;;;;;15.43;100.00;95702.81;1027942;28;20023;-74
2021/09/09 02:11:56;;;;;;;31.93;22.73;;;;;;;15.41;100.00;95703.13;1031995;28;20356;-74
2021/09/09 02:12:27;;;;;;;32.73;21.70;;;;;;;15.43;100.00;95706.31;1039950;28;20030;-74
2021/09/09 02:12:58;;;;;;;26.93;22.30;;;;;;;15.44;100.00;95707.88;1039971;28;20273;-74
2021/09/09 02:13:29;;;;;;;30.88;23.13;;;;;;;15.40;100.00;95704.22;1039978;28;20025;-73
2021/09/09 02:13:59;;;;;;;31.50;23.17;;;;;;;15.42;100.00;95702.03;1035885;28;20065;-74
2021/09/09 02:14:30;;;;;;;32.73;21.17;;;;;;;15.43;100.00;95710.91;1036152;28;20072;-74
2021/09/09 02:15:00;;;;;;;30.43;22.17;;;;;;;15.46;100.00;95707.59;1039948;28;20490;-73
2021/09/09 02:15:31;;;;;;;29.70;22.03;;;;;;;15.42;100.00;95707.41;1039834;28;20382;-73
2021/09/09 02:16:02;;;;;;;25.97;21.20;;;;;;;15.40;100.00;95703.41;1036014;28;20064;-74
2021/09/09 02:16:32;;;;;;;31.00;22.42;;;;;;;15.45;100.00;95704.09;1039904;28;20017;-73
2021/09/09 02:17:03;;;;;;;28.73;22.10;;;;;;;15.42;100.00;95710.09;1040012;28;20033;-73
2021/09/09 02:17:33;;;;;;;28.13;22.03;;;;;;;15.42;100.00;95707.41;1041101;28;20021;-74
2021/09/09 02:18:04;;;;;;;30.83;21.83;;;;;;;15.46;100.00;95707.59;1039911;28;20080;-74
2021/09/09 02:18:34;;;;;;;28.77;21.87;;;;;;;15.47;100.00;95711.88;1031799;28;20018;-74
2021/09/09 02:19:05;;;;;;;26.73;21.17;;;;;;;15.44;100.00;95701.72;1031812;28;20487;-73
2021/09/09 02:19:35;;;;;;;26.47;21.17;;;;;;;15.38;100.00;95701.03;1035851;28;20426;-73